Muscoy, California
Current Conditions -  °F | °C
As of 9:49 AM on Friday 19 Dec 2014 (Local Time) from KSBD Reporting Station
Scattered Clouds Scattered Clouds  
Wind Chill: 54°   Ceiling: Unl
Heat Index: 54°   Visibility: 10mi
Dew Point: 39°   Wind: 0mph
Humidity: 58%   Direction: NA
Pressure: 30.25"   Gusts: NA
Location:  34.2759°N, 117.303°W
Report Text: KSBD 191749Z 00000KT 10SM SCT200 12/04 A3025
Loading
Personal Weather Stations






























Interactive Weather Map New forecast layout! Learn more

10-Day Weather Forecast

Advertisements
Track Severe Weather on mobile